Terminal Aerodrome Forecast
Issued by NWS Atlanta, GA

Current Version | Previous Version | Text Only | Print | Product List | Glossary On
Versions: 1 2 3 4 5 6 7 8 9 10 11
000
FTUS42 KFFC 142344
TAFCSG
TAF
KCSG 142344Z 1500/1524 07005KT P6SM FEW050
     FM151400 07007KT P6SM SCT040
     FM151700 06008KT P6SM SCT050=

USA.gov is the U.S. government's official web portal to all federal, state and local government web resources and services.